sensor_id;sensor_type;location;lat;lon;timestamp;temperature;humidity
16128;DHT22;8168;49.036;7.690;2023-05-24T00:01:40;13.20;99.90
16128;DHT22;8168;49.036;7.690;2023-05-24T00:04:11;13.20;99.90
16128;DHT22;8168;49.036;7.690;2023-05-24T00:06:42;13.10;99.90
16128;DHT22;8168;49.036;7.690;2023-05-24T00:09:14;13.10;99.90
16128;DHT22;8168;49.036;7.690;2023-05-24T00:11:44;13.10;99.90
16128;DHT22;8168;49.036;7.690;2023-05-24T00:14:15;13.10;99.90
16128;DHT22;8168;49.036;7.690;2023-05-24T00:16:45;13.10;99.90
16128;DHT22;8168;49.036;7.690;2023-05-24T00:19:16;13.10;99.90
16128;DHT22;8168;49.036;7.690;2023-05-24T00:21:51;13.10;99.90
16128;DHT22;8168;49.036;7.690;2023-05-24T00:24:22;13.10;99.90
16128;DHT22;8168;49.036;7.690;2023-05-24T00:26:52;13.10;99.90
16128;DHT22;8168;49.036;7.690;2023-05-24T00:29:23;13.10;99.90
16128;DHT22;8168;49.036;7.690;2023-05-24T00:31:54;13.10;99.90
16128;DHT22;8168;49.036;7.690;2023-05-24T00:34:24;13.00;99.90
16128;DHT22;8168;49.036;7.690;2023-05-24T00:36:55;13.00;99.90
16128;DHT22;8168;49.036;7.690;2023-05-24T00:39:27;12.90;99.90
16128;DHT22;8168;49.036;7.690;2023-05-24T00:41:57;12.90;99.90
16128;DHT22;8168;49.036;7.690;2023-05-24T00:44:28;12.80;99.90
16128;DHT22;8168;49.036;7.690;2023-05-24T00:46:59;12.80;99.90
16128;DHT22;8168;49.036;7.690;2023-05-24T00:49:30;12.80;99.90
16128;DHT22;8168;49.036;7.690;2023-05-24T00:52:00;12.70;99.90
16128;DHT22;8168;49.036;7.690;2023-05-24T00:54:31;12.70;99.90
16128;DHT22;8168;49.036;7.690;2023-05-24T00:57:02;12.80;99.90
16128;DHT22;8168;49.036;7.690;2023-05-24T00:59:33;12.80;99.90
16128;DHT22;8168;49.036;7.690;2023-05-24T01:02:03;12.80;99.90
16128;DHT22;8168;49.036;7.690;2023-05-24T01:04:34;12.80;99.90
16128;DHT22;8168;49.036;7.690;2023-05-24T01:07:19;12.70;99.90
16128;DHT22;8168;49.036;7.690;2023-05-24T01:10:07;12.60;99.90
16128;DHT22;8168;49.036;7.690;2023-05-24T01:13:05;12.70;99.90
16128;DHT22;8168;49.036;7.690;2023-05-24T01:16:04;12.70;99.90
16128;DHT22;8168;49.036;7.690;2023-05-24T01:18:40;12.70;99.90
16128;DHT22;8168;49.036;7.690;2023-05-24T01:21:49;12.70;99.90
16128;DHT22;8168;49.036;7.690;2023-05-24T01:27:16;12.50;99.90
16128;DHT22;8168;49.036;7.690;2023-05-24T01:29:47;12.50;99.90
16128;DHT22;8168;49.036;7.690;2023-05-24T01:32:22;12.50;99.90
16128;DHT22;8168;49.036;7.690;2023-05-24T01:34:53;12.50;99.90
16128;DHT22;8168;49.036;7.690;2023-05-24T01:37:24;12.60;99.90
16128;DHT22;8168;49.036;7.690;2023-05-24T01:39:55;12.60;99.90
16128;DHT22;8168;49.036;7.690;2023-05-24T01:42:48;12.70;99.90
16128;DHT22;8168;49.036;7.690;2023-05-24T01:45:43;12.70;99.90
16128;DHT22;8168;49.036;7.690;2023-05-24T01:48:38;12.70;99.90
16128;DHT22;8168;49.036;7.690;2023-05-24T01:51:16;12.70;99.90
16128;DHT22;8168;49.036;7.690;2023-05-24T01:53:49;12.70;99.90
16128;DHT22;8168;49.036;7.690;2023-05-24T01:56:21;12.70;99.90
16128;DHT22;8168;49.036;7.690;2023-05-24T01:58:53;12.70;99.90
16128;DHT22;8168;49.036;7.690;2023-05-24T02:01:26;12.70;99.90
16128;DHT22;8168;49.036;7.690;2023-05-24T02:03:58;12.70;99.90
16128;DHT22;8168;49.036;7.690;2023-05-24T02:06:29;12.70;99.90
16128;DHT22;8168;49.036;7.690;2023-05-24T02:08:59;12.70;99.90
16128;DHT22;8168;49.036;7.690;2023-05-24T02:11:30;12.70;99.90
16128;DHT22;8168;49.036;7.690;2023-05-24T02:14:01;12.70;99.90
16128;DHT22;8168;49.036;7.690;2023-05-24T02:16:32;12.60;99.90
16128;DHT22;8168;49.036;7.690;2023-05-24T02:19:02;12.60;99.90
16128;DHT22;8168;49.036;7.690;2023-05-24T02:21:33;12.60;99.90
16128;DHT22;8168;49.036;7.690;2023-05-24T02:24:07;12.60;99.90
16128;DHT22;8168;49.036;7.690;2023-05-24T02:26:40;15.60;99.90
16128;DHT22;8168;49.036;7.690;2023-05-24T02:29:11;12.60;99.90
16128;DHT22;8168;49.036;7.690;2023-05-24T02:31:41;12.60;99.90
16128;DHT22;8168;49.036;7.690;2023-05-24T02:34:15;12.60;99.90
16128;DHT22;8168;49.036;7.690;2023-05-24T02:36:45;12.50;99.90
16128;DHT22;8168;49.036;7.690;2023-05-24T02:39:16;12.50;99.90
16128;DHT22;8168;49.036;7.690;2023-05-24T02:41:47;12.50;99.90
16128;DHT22;8168;49.036;7.690;2023-05-24T02:44:17;12.50;99.90
16128;DHT22;8168;49.036;7.690;2023-05-24T02:46:48;12.50;99.90
16128;DHT22;8168;49.036;7.690;2023-05-24T02:49:19;12.50;99.90
16128;DHT22;8168;49.036;7.690;2023-05-24T02:51:49;12.50;99.90
16128;DHT22;8168;49.036;7.690;2023-05-24T02:54:20;12.40;99.90
16128;DHT22;8168;49.036;7.690;2023-05-24T02:56:51;12.30;99.90
16128;DHT22;8168;49.036;7.690;2023-05-24T02:59:23;12.30;99.90
16128;DHT22;8168;49.036;7.690;2023-05-24T03:01:54;12.30;99.90
16128;DHT22;8168;49.036;7.690;2023-05-24T03:04:24;12.30;99.90
16128;DHT22;8168;49.036;7.690;2023-05-24T03:06:55;12.20;99.90
16128;DHT22;8168;49.036;7.690;2023-05-24T03:09:25;12.20;99.90
16128;DHT22;8168;49.036;7.690;2023-05-24T03:11:56;12.20;99.90
16128;DHT22;8168;49.036;7.690;2023-05-24T03:14:27;12.20;99.90
16128;DHT22;8168;49.036;7.690;2023-05-24T03:16:58;12.00;99.90
16128;DHT22;8168;49.036;7.690;2023-05-24T03:19:28;12.00;99.90
16128;DHT22;8168;49.036;7.690;2023-05-24T03:21:59;11.90;99.90
16128;DHT22;8168;49.036;7.690;2023-05-24T03:24:30;11.90;99.90
16128;DHT22;8168;49.036;7.690;2023-05-24T03:27:01;11.90;99.90
16128;DHT22;8168;49.036;7.690;2023-05-24T03:29:31;11.90;99.90
16128;DHT22;8168;49.036;7.690;2023-05-24T03:32:02;11.90;99.90
16128;DHT22;8168;49.036;7.690;2023-05-24T03:34:33;11.90;99.90
16128;DHT22;8168;49.036;7.690;2023-05-24T03:37:03;11.90;99.90
16128;DHT22;8168;49.036;7.690;2023-05-24T03:39:34;11.90;99.90
16128;DHT22;8168;49.036;7.690;2023-05-24T03:42:05;11.90;99.90
16128;DHT22;8168;49.036;7.690;2023-05-24T03:44:36;11.90;99.90
16128;DHT22;8168;49.036;7.690;2023-05-24T03:47:08;11.90;99.90
16128;DHT22;8168;49.036;7.690;2023-05-24T03:49:38;11.90;99.90
16128;DHT22;8168;49.036;7.690;2023-05-24T03:52:09;11.80;99.90
16128;DHT22;8168;49.036;7.690;2023-05-24T03:54:40;11.80;99.90
16128;DHT22;8168;49.036;7.690;2023-05-24T03:57:10;11.80;99.90
16128;DHT22;8168;49.036;7.690;2023-05-24T03:59:41;11.80;99.90
16128;DHT22;8168;49.036;7.690;2023-05-24T04:02:11;11.80;99.90
16128;DHT22;8168;49.036;7.690;2023-05-24T04:04:42;11.80;99.90
16128;DHT22;8168;49.036;7.690;2023-05-24T04:07:13;11.80;99.90
16128;DHT22;8168;49.036;7.690;2023-05-24T04:09:44;11.80;99.90
16128;DHT22;8168;49.036;7.690;2023-05-24T04:12:15;11.70;99.90
16128;DHT22;8168;49.036;7.690;2023-05-24T04:14:46;11.70;99.90
16128;DHT22;8168;49.036;7.690;2023-05-24T04:17:16;11.70;99.90
16128;DHT22;8168;49.036;7.690;2023-05-24T04:19:47;11.80;99.90
16128;DHT22;8168;49.036;7.690;2023-05-24T04:22:18;11.80;99.90
16128;DHT22;8168;49.036;7.690;2023-05-24T04:24:49;11.80;99.90
16128;DHT22;8168;49.036;7.690;2023-05-24T04:27:19;11.80;99.90
16128;DHT22;8168;49.036;7.690;2023-05-24T04:29:52;11.80;99.90
16128;DHT22;8168;49.036;7.690;2023-05-24T04:32:23;11.80;99.90
16128;DHT22;8168;49.036;7.690;2023-05-24T04:34:55;11.80;99.90
16128;DHT22;8168;49.036;7.690;2023-05-24T04:37:26;11.80;99.90
16128;DHT22;8168;49.036;7.690;2023-05-24T04:39:56;11.80;99.90
16128;DHT22;8168;49.036;7.690;2023-05-24T04:42:27;11.80;99.90
16128;DHT22;8168;49.036;7.690;2023-05-24T04:45:01;11.80;99.90
16128;DHT22;8168;49.036;7.690;2023-05-24T04:47:32;11.80;99.90
16128;DHT22;8168;49.036;7.690;2023-05-24T04:50:03;11.80;99.90
16128;DHT22;8168;49.036;7.690;2023-05-24T04:52:34;11.80;99.90
16128;DHT22;8168;49.036;7.690;2023-05-24T04:55:06;11.90;99.90
16128;DHT22;8168;49.036;7.690;2023-05-24T04:57:36;11.90;99.90
16128;DHT22;8168;49.036;7.690;2023-05-24T05:00:08;12.00;99.90
16128;DHT22;8168;49.036;7.690;2023-05-24T05:02:39;12.00;99.90
16128;DHT22;8168;49.036;7.690;2023-05-24T05:05:10;11.90;99.90
16128;DHT22;8168;49.036;7.690;2023-05-24T05:07:41;11.80;99.90
16128;DHT22;8168;49.036;7.690;2023-05-24T05:10:12;11.80;99.90
16128;DHT22;8168;49.036;7.690;2023-05-24T05:12:43;11.90;99.90
16128;DHT22;8168;49.036;7.690;2023-05-24T05:15:13;11.80;99.90
16128;DHT22;8168;49.036;7.690;2023-05-24T05:17:44;11.80;99.90
16128;DHT22;8168;49.036;7.690;2023-05-24T05:20:15;11.80;99.90
16128;DHT22;8168;49.036;7.690;2023-05-24T05:22:49;11.80;99.90
16128;DHT22;8168;49.036;7.690;2023-05-24T05:25:20;11.80;99.90
16128;DHT22;8168;49.036;7.690;2023-05-24T05:27:51;11.70;99.90
16128;DHT22;8168;49.036;7.690;2023-05-24T05:30:21;11.70;99.90
16128;DHT22;8168;49.036;7.690;2023-05-24T05:32:52;11.70;99.90
16128;DHT22;8168;49.036;7.690;2023-05-24T05:35:22;11.80;99.90
16128;DHT22;8168;49.036;7.690;2023-05-24T05:37:53;11.80;99.90
16128;DHT22;8168;49.036;7.690;2023-05-24T05:40:23;11.90;99.90
16128;DHT22;8168;49.036;7.690;2023-05-24T05:42:54;11.90;99.90
16128;DHT22;8168;49.036;7.690;2023-05-24T05:45:25;12.00;99.90
16128;DHT22;8168;49.036;7.690;2023-05-24T05:47:55;12.00;99.90
16128;DHT22;8168;49.036;7.690;2023-05-24T05:50:26;12.10;99.90
16128;DHT22;8168;49.036;7.690;2023-05-24T05:52:57;12.10;99.90
16128;DHT22;8168;49.036;7.690;2023-05-24T05:55:27;12.20;99.90
16128;DHT22;8168;49.036;7.690;2023-05-24T05:57:58;12.30;99.90
16128;DHT22;8168;49.036;7.690;2023-05-24T06:00:28;12.20;99.90
16128;DHT22;8168;49.036;7.690;2023-05-24T06:02:59;12.30;99.90
16128;DHT22;8168;49.036;7.690;2023-05-24T06:05:30;12.30;99.90
16128;DHT22;8168;49.036;7.690;2023-05-24T06:08:00;12.40;99.90
16128;DHT22;8168;49.036;7.690;2023-05-24T06:10:31;12.40;99.90
16128;DHT22;8168;49.036;7.690;2023-05-24T06:13:02;12.40;99.90
16128;DHT22;8168;49.036;7.690;2023-05-24T06:15:33;12.40;99.90
16128;DHT22;8168;49.036;7.690;2023-05-24T06:18:03;12.50;99.90
16128;DHT22;8168;49.036;7.690;2023-05-24T06:20:34;12.50;99.90
16128;DHT22;8168;49.036;7.690;2023-05-24T06:23:06;12.60;99.90
16128;DHT22;8168;49.036;7.690;2023-05-24T06:25:36;12.60;99.90
16128;DHT22;8168;49.036;7.690;2023-05-24T06:28:08;12.60;99.90
16128;DHT22;8168;49.036;7.690;2023-05-24T06:30:38;12.60;99.90
16128;DHT22;8168;49.036;7.690;2023-05-24T06:33:09;12.70;99.90
16128;DHT22;8168;49.036;7.690;2023-05-24T06:35:40;12.70;99.90
16128;DHT22;8168;49.036;7.690;2023-05-24T06:38:10;12.70;99.90
16128;DHT22;8168;49.036;7.690;2023-05-24T06:40:41;12.60;99.90
16128;DHT22;8168;49.036;7.690;2023-05-24T06:43:12;12.60;99.90
16128;DHT22;8168;49.036;7.690;2023-05-24T06:45:43;12.60;99.90
16128;DHT22;8168;49.036;7.690;2023-05-24T06:48:13;12.70;99.90
16128;DHT22;8168;49.036;7.690;2023-05-24T06:50:44;12.80;99.90
16128;DHT22;8168;49.036;7.690;2023-05-24T06:53:15;12.90;99.90
16128;DHT22;8168;49.036;7.690;2023-05-24T06:55:46;12.90;99.90
16128;DHT22;8168;49.036;7.690;2023-05-24T06:58:16;13.00;99.90
16128;DHT22;8168;49.036;7.690;2023-05-24T07:00:47;13.20;99.90
16128;DHT22;8168;49.036;7.690;2023-05-24T07:03:18;13.20;99.90
16128;DHT22;8168;49.036;7.690;2023-05-24T07:05:48;13.10;99.90
16128;DHT22;8168;49.036;7.690;2023-05-24T07:08:19;13.10;99.90
16128;DHT22;8168;49.036;7.690;2023-05-24T07:10:50;13.20;99.90
16128;DHT22;8168;49.036;7.690;2023-05-24T07:13:21;13.20;99.90
16128;DHT22;8168;49.036;7.690;2023-05-24T07:15:52;13.30;99.90
16128;DHT22;8168;49.036;7.690;2023-05-24T07:18:23;13.20;99.90
16128;DHT22;8168;49.036;7.690;2023-05-24T07:20:53;13.30;99.90
16128;DHT22;8168;49.036;7.690;2023-05-24T07:23:24;13.40;99.90
16128;DHT22;8168;49.036;7.690;2023-05-24T07:25:54;13.50;99.90
16128;DHT22;8168;49.036;7.690;2023-05-24T07:28:25;13.60;99.90
16128;DHT22;8168;49.036;7.690;2023-05-24T07:30:56;13.70;99.90
16128;DHT22;8168;49.036;7.690;2023-05-24T07:33:27;13.70;99.90
16128;DHT22;8168;49.036;7.690;2023-05-24T07:35:58;13.70;99.90
16128;DHT22;8168;49.036;7.690;2023-05-24T07:38:28;13.60;99.90
16128;DHT22;8168;49.036;7.690;2023-05-24T07:41:00;13.60;99.90
16128;DHT22;8168;49.036;7.690;2023-05-24T07:43:30;13.80;99.90
16128;DHT22;8168;49.036;7.690;2023-05-24T07:46:01;13.80;99.90
16128;DHT22;8168;49.036;7.690;2023-05-24T07:48:32;13.90;99.90
16128;DHT22;8168;49.036;7.690;2023-05-24T07:51:02;14.00;99.90
16128;DHT22;8168;49.036;7.690;2023-05-24T07:53:33;14.10;99.90
16128;DHT22;8168;49.036;7.690;2023-05-24T07:56:04;14.20;99.90
16128;DHT22;8168;49.036;7.690;2023-05-24T07:58:34;14.30;99.90
16128;DHT22;8168;49.036;7.690;2023-05-24T08:01:05;14.30;99.90
16128;DHT22;8168;49.036;7.690;2023-05-24T08:03:35;14.40;99.90
16128;DHT22;8168;49.036;7.690;2023-05-24T08:06:07;14.30;99.90
16128;DHT22;8168;49.036;7.690;2023-05-24T08:08:39;14.40;99.90
16128;DHT22;8168;49.036;7.690;2023-05-24T08:11:10;14.40;99.90
16128;DHT22;8168;49.036;7.690;2023-05-24T08:13:42;14.50;99.90
16128;DHT22;8168;49.036;7.690;2023-05-24T08:16:13;14.50;99.90
16128;DHT22;8168;49.036;7.690;2023-05-24T08:18:43;14.60;99.90
16128;DHT22;8168;49.036;7.690;2023-05-24T08:21:14;14.70;99.90
16128;DHT22;8168;49.036;7.690;2023-05-24T08:23:45;14.80;99.90
16128;DHT22;8168;49.036;7.690;2023-05-24T08:26:16;14.80;99.90
16128;DHT22;8168;49.036;7.690;2023-05-24T08:28:48;14.90;99.90
16128;DHT22;8168;49.036;7.690;2023-05-24T08:31:20;15.00;99.90
16128;DHT22;8168;49.036;7.690;2023-05-24T08:33:51;15.00;99.90
16128;DHT22;8168;49.036;7.690;2023-05-24T08:36:22;15.00;99.90
16128;DHT22;8168;49.036;7.690;2023-05-24T08:38:52;14.90;99.90
16128;DHT22;8168;49.036;7.690;2023-05-24T08:41:23;14.90;99.90
16128;DHT22;8168;49.036;7.690;2023-05-24T08:43:57;15.00;99.90
16128;DHT22;8168;49.036;7.690;2023-05-24T08:46:31;15.10;99.90
16128;DHT22;8168;49.036;7.690;2023-05-24T08:49:03;15.20;99.90
16128;DHT22;8168;49.036;7.690;2023-05-24T08:51:34;15.30;99.90
16128;DHT22;8168;49.036;7.690;2023-05-24T08:54:09;15.30;99.70
16128;DHT22;8168;49.036;7.690;2023-05-24T08:56:41;15.30;99.90
16128;DHT22;8168;49.036;7.690;2023-05-24T08:59:12;15.30;98.80
16128;DHT22;8168;49.036;7.690;2023-05-24T09:01:43;15.30;98.70
16128;DHT22;8168;49.036;7.690;2023-05-24T09:04:16;15.50;99.30
16128;DHT22;8168;49.036;7.690;2023-05-24T09:06:47;15.50;98.70
16128;DHT22;8168;49.036;7.690;2023-05-24T09:09:20;15.50;98.50
16128;DHT22;8168;49.036;7.690;2023-05-24T09:11:52;15.70;99.40
16128;DHT22;8168;49.036;7.690;2023-05-24T09:14:26;15.90;98.40
16128;DHT22;8168;49.036;7.690;2023-05-24T09:16:56;16.00;97.50
16128;DHT22;8168;49.036;7.690;2023-05-24T09:19:28;16.10;95.70
16128;DHT22;8168;49.036;7.690;2023-05-24T09:21:58;15.00;94.70
16128;DHT22;8168;49.036;7.690;2023-05-24T09:24:29;16.20;94.50
16128;DHT22;8168;49.036;7.690;2023-05-24T09:27:04;16.20;91.40
16128;DHT22;8168;49.036;7.690;2023-05-24T09:29:36;16.20;93.40
16128;DHT22;8168;49.036;7.690;2023-05-24T09:32:07;16.20;93.90
16128;DHT22;8168;49.036;7.690;2023-05-24T09:34:39;16.20;91.80
16128;DHT22;8168;49.036;7.690;2023-05-24T09:37:15;16.20;92.50
16128;DHT22;8168;49.036;7.690;2023-05-24T09:39:47;16.20;93.00
16128;DHT22;8168;49.036;7.690;2023-05-24T09:42:20;16.30;93.70
16128;DHT22;8168;49.036;7.690;2023-05-24T09:45:04;16.30;90.10
16128;DHT22;8168;49.036;7.690;2023-05-24T09:47:39;16.30;92.00
16128;DHT22;8168;49.036;7.690;2023-05-24T09:50:15;16.40;88.40
16128;DHT22;8168;49.036;7.690;2023-05-24T09:52:46;16.50;90.10
16128;DHT22;8168;49.036;7.690;2023-05-24T09:55:18;16.60;91.80
16128;DHT22;8168;49.036;7.690;2023-05-24T09:57:59;16.70;90.50
16128;DHT22;8168;49.036;7.690;2023-05-24T10:00:37;16.70;90.00
16128;DHT22;8168;49.036;7.690;2023-05-24T10:03:10;16.80;90.60
16128;DHT22;8168;49.036;7.690;2023-05-24T10:05:43;17.00;89.40
16128;DHT22;8168;49.036;7.690;2023-05-24T10:08:14;17.10;87.70
16128;DHT22;8168;49.036;7.690;2023-05-24T10:10:45;17.10;90.90
16128;DHT22;8168;49.036;7.690;2023-05-24T10:13:16;17.30;87.90
16128;DHT22;8168;49.036;7.690;2023-05-24T10:15:47;17.30;84.20
16128;DHT22;8168;49.036;7.690;2023-05-24T10:18:18;17.30;85.70
16128;DHT22;8168;49.036;7.690;2023-05-24T10:20:50;17.30;84.70
16128;DHT22;8168;49.036;7.690;2023-05-24T10:23:21;17.40;83.00
16128;DHT22;8168;49.036;7.690;2023-05-24T10:26:11;17.50;85.80
16128;DHT22;8168;49.036;7.690;2023-05-24T10:28:46;17.70;84.10
16128;DHT22;8168;49.036;7.690;2023-05-24T10:33:56;17.80;78.40
16128;DHT22;8168;49.036;7.690;2023-05-24T10:36:27;18.00;80.70
16128;DHT22;8168;49.036;7.690;2023-05-24T10:38:59;18.10;79.70
16128;DHT22;8168;49.036;7.690;2023-05-24T10:41:38;18.20;79.40
16128;DHT22;8168;49.036;7.690;2023-05-24T10:44:17;18.30;80.80
16128;DHT22;8168;49.036;7.690;2023-05-24T10:47:21;18.20;75.20
16128;DHT22;8168;49.036;7.690;2023-05-24T10:49:57;18.20;78.10
16128;DHT22;8168;49.036;7.690;2023-05-24T10:52:34;18.30;78.00
16128;DHT22;8168;49.036;7.690;2023-05-24T10:55:07;18.20;75.20
16128;DHT22;8168;49.036;7.690;2023-05-24T10:57:39;18.00;74.30
16128;DHT22;8168;49.036;7.690;2023-05-24T11:02:50;18.20;79.10
16128;DHT22;8168;49.036;7.690;2023-05-24T11:05:47;18.40;81.20
16128;DHT22;8168;49.036;7.690;2023-05-24T11:11:11;18.40;78.30
16128;DHT22;8168;49.036;7.690;2023-05-24T11:13:45;18.30;76.10
16128;DHT22;8168;49.036;7.690;2023-05-24T11:21:49;18.30;81.10
16128;DHT22;8168;49.036;7.690;2023-05-24T11:24:20;18.30;81.20
16128;DHT22;8168;49.036;7.690;2023-05-24T11:26:55;18.50;77.00
16128;DHT22;8168;49.036;7.690;2023-05-24T11:29:26;18.60;77.30
16128;DHT22;8168;49.036;7.690;2023-05-24T11:31:59;18.70;76.90
16128;DHT22;8168;49.036;7.690;2023-05-24T11:34:36;18.90;77.30
16128;DHT22;8168;49.036;7.690;2023-05-24T11:37:09;18.90;74.20
16128;DHT22;8168;49.036;7.690;2023-05-24T11:39:40;19.00;76.90
16128;DHT22;8168;49.036;7.690;2023-05-24T11:42:11;18.90;74.20
16128;DHT22;8168;49.036;7.690;2023-05-24T11:44:41;19.00;74.70
16128;DHT22;8168;49.036;7.690;2023-05-24T11:47:12;19.00;73.60
16128;DHT22;8168;49.036;7.690;2023-05-24T11:49:42;19.00;76.30
16128;DHT22;8168;49.036;7.690;2023-05-24T11:52:13;19.00;68.60
16128;DHT22;8168;49.036;7.690;2023-05-24T11:54:44;18.80;70.50
16128;DHT22;8168;49.036;7.690;2023-05-24T11:57:15;18.80;70.00
16128;DHT22;8168;49.036;7.690;2023-05-24T11:59:48;18.80;73.50
16128;DHT22;8168;49.036;7.690;2023-05-24T12:02:19;18.90;73.00
16128;DHT22;8168;49.036;7.690;2023-05-24T12:04:50;18.90;75.20
16128;DHT22;8168;49.036;7.690;2023-05-24T12:07:22;19.00;73.30
16128;DHT22;8168;49.036;7.690;2023-05-24T12:09:53;19.00;69.30
16128;DHT22;8168;49.036;7.690;2023-05-24T12:12:23;19.00;68.40
16128;DHT22;8168;49.036;7.690;2023-05-24T12:14:55;19.00;79.10
16128;DHT22;8168;49.036;7.690;2023-05-24T12:17:26;19.00;75.20
16128;DHT22;8168;49.036;7.690;2023-05-24T12:19:57;19.00;79.90
16128;DHT22;8168;49.036;7.690;2023-05-24T12:22:28;19.10;75.70
16128;DHT22;8168;49.036;7.690;2023-05-24T12:25:02;19.30;77.30
16128;DHT22;8168;49.036;7.690;2023-05-24T12:27:33;19.40;77.60
16128;DHT22;8168;49.036;7.690;2023-05-24T12:30:05;19.40;74.60
16128;DHT22;8168;49.036;7.690;2023-05-24T12:32:36;19.50;74.60
16128;DHT22;8168;49.036;7.690;2023-05-24T12:35:07;19.50;75.20
16128;DHT22;8168;49.036;7.690;2023-05-24T12:37:40;19.50;71.90
16128;DHT22;8168;49.036;7.690;2023-05-24T12:40:20;19.50;77.50
16128;DHT22;8168;49.036;7.690;2023-05-24T12:42:55;19.50;73.10
16128;DHT22;8168;49.036;7.690;2023-05-24T12:45:27;19.50;72.60
16128;DHT22;8168;49.036;7.690;2023-05-24T12:47:58;19.50;73.70
16128;DHT22;8168;49.036;7.690;2023-05-24T12:50:30;19.60;71.70
16128;DHT22;8168;49.036;7.690;2023-05-24T12:53:01;19.60;72.90
16128;DHT22;8168;49.036;7.690;2023-05-24T12:55:31;19.70;78.30
16128;DHT22;8168;49.036;7.690;2023-05-24T12:58:02;19.60;75.20
16128;DHT22;8168;49.036;7.690;2023-05-24T13:00:35;19.40;64.80
16128;DHT22;8168;49.036;7.690;2023-05-24T13:03:06;19.40;72.60
16128;DHT22;8168;49.036;7.690;2023-05-24T13:05:38;19.50;72.70
16128;DHT22;8168;49.036;7.690;2023-05-24T13:08:08;19.50;69.10
16128;DHT22;8168;49.036;7.690;2023-05-24T13:10:39;19.60;69.60
16128;DHT22;8168;49.036;7.690;2023-05-24T13:13:10;19.70;71.30
16128;DHT22;8168;49.036;7.690;2023-05-24T13:15:40;19.70;65.90
16128;DHT22;8168;49.036;7.690;2023-05-24T13:18:13;19.70;71.80
16128;DHT22;8168;49.036;7.690;2023-05-24T13:20:44;19.80;68.90
16128;DHT22;8168;49.036;7.690;2023-05-24T13:23:15;19.80;68.00
16128;DHT22;8168;49.036;7.690;2023-05-24T13:25:45;19.70;64.00
16128;DHT22;8168;49.036;7.690;2023-05-24T13:28:16;19.60;63.00
16128;DHT22;8168;49.036;7.690;2023-05-24T13:30:47;19.50;62.90
16128;DHT22;8168;49.036;7.690;2023-05-24T13:33:18;19.50;64.20
16128;DHT22;8168;49.036;7.690;2023-05-24T13:35:48;19.60;62.40
16128;DHT22;8168;49.036;7.690;2023-05-24T13:38:20;19.50;60.90
16128;DHT22;8168;49.036;7.690;2023-05-24T13:40:51;19.50;62.10
16128;DHT22;8168;49.036;7.690;2023-05-24T13:43:22;19.60;62.70
16128;DHT22;8168;49.036;7.690;2023-05-24T13:45:54;19.70;63.10
16128;DHT22;8168;49.036;7.690;2023-05-24T13:48:24;19.70;68.40
16128;DHT22;8168;49.036;7.690;2023-05-24T13:50:55;18.30;66.40
16128;DHT22;8168;49.036;7.690;2023-05-24T13:53:26;19.90;66.60
16128;DHT22;8168;49.036;7.690;2023-05-24T13:55:57;19.80;66.60
16128;DHT22;8168;49.036;7.690;2023-05-24T13:58:27;19.80;70.00
16128;DHT22;8168;49.036;7.690;2023-05-24T14:00:58;19.60;70.10
16128;DHT22;8168;49.036;7.690;2023-05-24T14:03:29;19.70;69.80
16128;DHT22;8168;49.036;7.690;2023-05-24T14:05:59;19.70;70.00
16128;DHT22;8168;49.036;7.690;2023-05-24T14:08:30;19.70;70.40
16128;DHT22;8168;49.036;7.690;2023-05-24T14:11:01;19.80;72.20
16128;DHT22;8168;49.036;7.690;2023-05-24T14:13:32;19.90;68.80
16128;DHT22;8168;49.036;7.690;2023-05-24T14:16:02;20.00;71.70
16128;DHT22;8168;49.036;7.690;2023-05-24T14:18:33;20.00;70.10
16128;DHT22;8168;49.036;7.690;2023-05-24T14:21:04;20.10;68.40
16128;DHT22;8168;49.036;7.690;2023-05-24T14:23:35;20.20;65.70
16128;DHT22;8168;49.036;7.690;2023-05-24T14:26:05;20.20;68.50
16128;DHT22;8168;49.036;7.690;2023-05-24T14:28:36;20.30;67.00
16128;DHT22;8168;49.036;7.690;2023-05-24T14:31:07;20.30;67.90
16128;DHT22;8168;49.036;7.690;2023-05-24T14:33:37;20.30;68.30
16128;DHT22;8168;49.036;7.690;2023-05-24T14:36:08;20.20;69.10
16128;DHT22;8168;49.036;7.690;2023-05-24T14:38:38;20.10;68.70
16128;DHT22;8168;49.036;7.690;2023-05-24T14:41:09;19.80;66.30
16128;DHT22;8168;49.036;7.690;2023-05-24T14:43:40;19.60;65.00
16128;DHT22;8168;49.036;7.690;2023-05-24T14:46:11;19.40;67.40
16128;DHT22;8168;49.036;7.690;2023-05-24T14:48:41;19.30;70.50
16128;DHT22;8168;49.036;7.690;2023-05-24T14:51:12;19.30;70.50
16128;DHT22;8168;49.036;7.690;2023-05-24T14:53:43;19.30;69.10
16128;DHT22;8168;49.036;7.690;2023-05-24T14:56:14;19.30;71.10
16128;DHT22;8168;49.036;7.690;2023-05-24T14:58:45;19.40;73.60
16128;DHT22;8168;49.036;7.690;2023-05-24T15:01:16;19.50;72.70
16128;DHT22;8168;49.036;7.690;2023-05-24T15:03:46;19.60;70.80
16128;DHT22;8168;49.036;7.690;2023-05-24T15:06:17;19.70;71.00
16128;DHT22;8168;49.036;7.690;2023-05-24T15:08:48;19.60;69.80
16128;DHT22;8168;49.036;7.690;2023-05-24T15:11:19;19.60;69.30
16128;DHT22;8168;49.036;7.690;2023-05-24T15:13:49;19.50;67.40
16128;DHT22;8168;49.036;7.690;2023-05-24T15:16:25;19.40;67.70
16128;DHT22;8168;49.036;7.690;2023-05-24T15:18:56;19.30;67.40
16128;DHT22;8168;49.036;7.690;2023-05-24T15:21:26;19.30;71.80
16128;DHT22;8168;49.036;7.690;2023-05-24T15:23:57;19.30;68.00
16128;DHT22;8168;49.036;7.690;2023-05-24T15:26:27;19.30;69.80
16128;DHT22;8168;49.036;7.690;2023-05-24T15:28:58;19.30;71.40
16128;DHT22;8168;49.036;7.690;2023-05-24T15:31:33;19.30;66.90
16128;DHT22;8168;49.036;7.690;2023-05-24T15:34:03;19.10;68.60
16128;DHT22;8168;49.036;7.690;2023-05-24T15:36:35;18.90;68.30
16128;DHT22;8168;49.036;7.690;2023-05-24T15:39:06;18.80;69.50
16128;DHT22;8168;49.036;7.690;2023-05-24T15:41:36;18.70;72.80
16128;DHT22;8168;49.036;7.690;2023-05-24T15:44:07;18.70;72.00
16128;DHT22;8168;49.036;7.690;2023-05-24T15:46:38;18.70;71.00
16128;DHT22;8168;49.036;7.690;2023-05-24T15:49:10;18.80;72.00
16128;DHT22;8168;49.036;7.690;2023-05-24T15:51:42;18.70;73.20
16128;DHT22;8168;49.036;7.690;2023-05-24T15:54:12;18.70;72.90
16128;DHT22;8168;49.036;7.690;2023-05-24T15:56:43;18.60;70.30
16128;DHT22;8168;49.036;7.690;2023-05-24T15:59:16;18.40;73.50
16128;DHT22;8168;49.036;7.690;2023-05-24T16:01:47;18.20;73.90
16128;DHT22;8168;49.036;7.690;2023-05-24T16:04:17;18.20;77.60
16128;DHT22;8168;49.036;7.690;2023-05-24T16:06:48;18.20;75.20
16128;DHT22;8168;49.036;7.690;2023-05-24T16:09:19;18.30;77.30
16128;DHT22;8168;49.036;7.690;2023-05-24T16:11:49;18.20;75.20
16128;DHT22;8168;49.036;7.690;2023-05-24T16:14:20;18.20;73.50
16128;DHT22;8168;49.036;7.690;2023-05-24T16:16:51;18.10;74.00
16128;DHT22;8168;49.036;7.690;2023-05-24T16:19:22;18.10;74.40
16128;DHT22;8168;49.036;7.690;2023-05-24T16:21:52;18.10;78.90
16128;DHT22;8168;49.036;7.690;2023-05-24T16:24:23;18.00;75.40
16128;DHT22;8168;49.036;7.690;2023-05-24T16:26:56;18.00;76.30
16128;DHT22;8168;49.036;7.690;2023-05-24T16:29:27;17.80;74.70
16128;DHT22;8168;49.036;7.690;2023-05-24T16:31:57;17.60;73.10